Flugplatz Beilngries (EDNC)

Hier findest Du alle Informationen zum Flugplatz Beilngries (EDNC).

Informationen für Piloten zum Flugplatz Beilngries

Hier findest Du alle relevanten Informationen, die Du als Pilot benötigst, um Beilngries anzufliegen.

Flugplatz: Beilngries ICAO-Code: EDNC
Frequenz Turm: 118,350 Mhz GAFOR Gebiet: 63
Frequenz Ground: 118,350 Mhz Mogas: ja
Platzrunde: N 2800 ft Landegebühr: -
Platzhöhe: - Sunrise: 05:36 Uhr UTC
Pisten: 10/28 - 600 m x 25 m, GRAS Sunset: 16:22 Uhr UTC

Flugwetter am Flugplatz Beilngries

Die METAR Information stammen aus EDDN (60.75 km entfernt).

METAR Code:
2021/10/15 09:20
EDDN 150920Z 20004KT 160V260 CAVOK 12/07 Q1019 NOSIG

Flugschulen am Flugplatz Beilngries

Am Flugplatz Beilngries gibt es eine Flugschule.

Benachbarte Flugplätze und Flugschulen

Es gibt 16 weitere Flugplätze in einem Umkreis von 50 km um den Flugplatz Beilngries.

Jetzt anmelden

Passwort vergessen

Umfrage Archiv

Wie habt Ihr Eure UL-Lizenz erworben?

Ausbildung als Fußgänger
67.2 %
Umschulung von Motorflug
16.4 %
Umschulung von Segelflug
14.8 %
Umschulung von Helikopter
1.6 %
Stimmen: 122 | Diskussion
Anzeige: Roland Aircraft
Statistik Alle Mitglieder

Aktuell sind 42 Besucher online.

Anzeige: VFR Sprechfunk Simulator Anzeige: Pocket FMS